Time;durP1;ratioP1;P1;durP2;ratioP2;P2;SDS_P1;SDS_P2;PMS_P1;PMS_P2;Temp;Humidity;BMP_temperature;BMP_pressure;BME280_temperature;BME280_humidity;BME280_pressure;Samples;Min_cycle;Max_cycle;Signal;HPM_P1;HPM_P2
2023/10/17 00:02:24;;;;;;;5.72;1.40;;;4.50;99.90;;;3.03;89.13;101699.94;6283589;22;20009;-83
2023/10/17 00:04:53;;;;;;;4.77;1.40;;;4.40;99.90;;;2.98;88.96;101696.47;6284206;22;20019;-82
2023/10/17 00:07:20;;;;;;;3.38;1.20;;;4.40;99.90;;;2.94;89.41;101689.53;6281872;22;20061;-83
2023/10/17 00:09:48;;;;;;;5.82;1.42;;;4.40;99.90;;;2.93;89.69;101698.19;6282508;22;20061;-83
2023/10/17 00:14:45;;;;;;;6.07;1.50;;;4.30;99.90;;;2.90;89.96;101698.19;6282307;22;20003;-82
2023/10/17 00:17:16;;;;;;;5.88;1.88;;;4.30;99.90;;;2.88;90.00;101697.31;6255144;22;20028;-83
2023/10/17 00:19:43;;;;;;;3.10;1.38;;;4.30;99.90;;;2.88;90.55;101692.13;6282468;22;20086;-83
2023/10/17 00:22:23;;;;;;;5.60;1.38;;;4.30;99.90;;;2.86;90.71;101692.09;6281470;22;20031;-83
2023/10/17 00:25:08;;;;;;;4.15;1.40;;;4.30;99.90;;;2.85;90.58;101689.50;6255500;22;20026;-82
2023/10/17 00:27:34;;;;;;;1.85;0.77;;;4.20;99.90;;;2.77;90.43;101680.84;6282872;22;20359;-83
2023/10/17 00:30:00;;;;;;;1.85;0.80;;;4.20;99.90;;;2.72;89.90;101687.75;6280129;22;20003;-83
2023/10/17 00:32:31;;;;;;;1.98;0.77;;;;;;;2.66;89.78;101684.28;6280552;22;20014;-82
2023/10/17 00:35:07;;;;;;;1.85;0.60;;;4.10;99.90;;;2.61;89.19;101682.53;6306104;22;20036;-82
2023/10/17 00:37:37;;;;;;;3.80;1.05;;;4.10;99.90;;;2.56;89.21;101682.53;6257341;22;20517;-82
2023/10/17 00:40:26;;;;;;;6.10;1.00;;;4.00;99.90;;;2.55;89.08;101682.53;6281226;22;20116;-82
2023/10/17 00:42:52;;;;;;;2.35;0.90;;;4.00;99.90;;;2.48;89.09;101681.66;6284096;22;20004;-81
2023/10/17 00:45:19;;;;;;;2.35;1.05;;;3.90;99.90;;;2.46;89.08;101680.78;6254811;22;20045;-81
2023/10/17 00:47:51;;;;;;;5.70;1.60;;;3.90;99.90;;;2.42;89.55;101674.72;6253866;22;20011;-81
2023/10/17 00:50:19;;;;;;;3.97;1.60;;;3.90;99.90;;;2.42;89.57;101679.06;6279239;22;20034;-83
2023/10/17 00:52:46;;;;;;;4.32;1.70;;;3.90;99.90;;;2.40;89.90;101673.00;6279729;22;20384;-81
2023/10/17 00:55:18;;;;;;;3.72;1.77;;;3.90;99.90;;;2.40;90.15;101667.78;6279628;22;20031;-82
2023/10/17 00:57:45;;;;;;;9.80;2.13;;;3.80;99.90;;;2.40;90.73;101670.38;6306870;22;20006;-81
2023/10/17 01:00:22;;;;;;;6.80;2.05;;;3.80;99.90;;;2.39;91.26;101676.44;6279184;22;20084;-82
2023/10/17 01:02:51;;;;;;;7.80;1.50;;;3.80;99.90;;;2.38;91.51;101677.31;6280732;22;20006;-82
2023/10/17 01:05:27;;;;;;;10.43;2.00;;;3.80;99.90;;;2.34;91.79;101676.44;6254405;22;20003;-82
2023/10/17 01:07:53;;;;;;;3.92;1.50;;;3.80;99.90;;;2.33;92.44;101671.22;6280049;22;20389;-80
2023/10/17 01:10:24;;;;;;;5.55;1.42;;;3.80;99.90;;;2.31;92.50;101667.75;6278837;22;20011;-82
2023/10/17 01:13:14;;;;;;;7.65;1.85;;;3.80;99.90;;;2.28;92.71;101659.94;6280010;22;20014;-82
2023/10/17 01:15:39;;;;;;;5.10;1.90;;;3.70;99.90;;;2.24;92.70;101659.94;6282387;22;19999;-82
2023/10/17 01:18:05;;;;;;;5.07;2.08;;;3.70;99.90;;;2.24;92.97;101659.94;6253501;22;20340;-82
2023/10/17 01:20:40;;;;;;;4.00;1.70;;;3.70;99.90;;;2.30;93.89;101664.28;6252626;22;20030;-80
2023/10/17 01:23:07;;;;;;;50.92;3.05;;;3.80;99.90;;;2.31;94.37;101665.16;6253350;22;20031;-81
2023/10/17 01:25:35;;;;;;;85.25;4.78;;;3.80;99.90;;;2.30;94.60;101663.41;6279714;22;20052;-81
2023/10/17 01:28:08;;;;;;;35.25;2.30;;;3.70;99.90;;;2.29;95.23;101664.28;6279004;22;20529;-81
2023/10/17 01:30:34;;;;;;;9.45;1.38;;;3.70;99.90;;;2.24;95.31;101659.06;6253044;22;19999;-82
2023/10/17 01:33:00;;;;;;;2.13;1.10;;;3.70;99.90;;;2.23;95.69;101660.81;6278685;22;20435;-80
2023/10/17 01:35:34;;;;;;;2.35;1.27;;;3.70;99.90;;;2.19;95.68;101656.47;6278058;22;20152;-80
2023/10/17 01:38:01;;;;;;;2.35;1.05;;;3.60;99.90;;;2.16;95.58;101663.38;6254308;22;20355;-81
2023/10/17 01:40:27;;;;;;;2.63;1.10;;;3.60;99.90;;;2.15;95.70;101665.09;6278703;22;20007;-82
2023/10/17 01:43:01;;;;;;;1.60;1.20;;;3.60;99.90;;;2.15;95.92;101657.31;6278707;22;20321;-81
2023/10/17 01:45:29;;;;;;;2.90;1.30;;;3.60;99.90;;;2.13;95.97;101659.03;6279149;22;20106;-82
2023/10/17 01:47:55;;;;;;;5.28;1.65;;;3.60;99.90;;;2.10;95.53;101655.56;6277853;22;20007;-81
2023/10/17 01:50:32;;;;;;;6.68;1.63;;;3.60;99.90;;;2.08;95.80;101658.16;6278640;22;20023;-82
2023/10/17 01:53:00;;;;;;;4.88;1.60;;;3.60;99.90;;;2.09;95.90;101654.69;6254949;22;20030;-82
2023/10/17 01:55:27;;;;;;;6.68;1.80;;;3.60;99.90;;;2.11;96.17;101658.16;6285767;22;20003;-82
2023/10/17 01:58:07;;;;;;;7.25;1.65;;;3.60;99.90;;;2.13;96.46;101661.63;6257508;22;19999;-82
2023/10/17 02:00:38;;;;;;;9.15;1.88;;;3.60;99.90;;;2.11;96.73;101655.56;6283024;22;20004;-82
2023/10/17 02:03:07;;;;;;;4.20;1.13;;;3.60;99.90;;;2.09;96.16;101661.63;6282660;22;19999;-82
2023/10/17 02:05:44;;;;;;;1.45;1.00;;;3.50;99.90;;;2.05;96.10;101663.34;6281229;22;20006;-82
2023/10/17 02:08:10;;;;;;;1.70;0.95;;;3.50;99.90;;;1.99;95.61;101651.22;6257130;22;20033;-82
2023/10/17 02:10:36;;;;;;;3.42;1.02;;;3.50;99.90;;;1.93;95.32;101663.31;6255334;22;20007;-82
2023/10/17 02:13:04;;;;;;;2.25;1.00;;;3.40;99.90;;;1.87;94.55;101663.28;6280482;22;20018;-82
2023/10/17 02:15:34;;;;;;;5.30;1.30;;;3.30;99.90;;;1.81;94.04;101657.22;6306037;22;20069;-82
2023/10/17 02:18:11;;;;;;;3.53;1.10;;;3.30;99.90;;;1.76;93.82;101656.28;6255556;22;20007;-82
2023/10/17 02:20:37;;;;;;;3.33;1.85;;;3.30;99.90;;;1.71;93.55;101647.63;6283208;22;20011;-82
2023/10/17 02:23:08;;;;;;;4.32;1.90;;;3.20;99.90;;;1.70;93.87;101652.81;6279567;22;19999;-82
2023/10/17 02:25:35;;;;;;;5.55;1.90;;;3.20;99.90;;;1.70;93.47;101653.66;6281939;22;20011;-81
2023/10/17 02:28:04;;;;;;;2.88;1.80;;;3.20;99.90;;;1.71;94.03;101663.22;6281762;22;20010;-81
2023/10/17 02:30:30;;;;;;;2.35;1.25;;;3.20;99.90;;;1.69;94.04;101658.88;6257209;22;20009;-81
2023/10/17 02:32:56;;;;;;;5.72;1.50;;;3.20;99.90;;;1.64;94.20;101667.50;6255649;22;20004;-81
2023/10/17 02:35:39;;;;;;;4.63;1.60;;;3.10;99.90;;;1.62;93.46;101663.13;6256484;22;20053;-82
2023/10/17 02:38:05;;;;;;;4.18;1.42;;;3.10;99.90;;;1.59;94.05;101653.59;6285105;22;20004;-80
2023/10/17 02:40:38;;;;;;;26.08;1.40;;;3.10;99.90;;;1.56;93.56;101660.53;6280649;22;20830;-82
2023/10/17 02:43:04;;;;;;;4.10;0.70;;;3.00;99.90;;;1.50;93.46;101665.69;6281614;22;20007;-82
2023/10/17 02:45:30;;;;;;;1.50;0.63;;;2.90;99.90;;;1.43;93.18;101657.00;6281014;22;20074;-82
2023/10/17 02:48:11;;;;;;;1.85;0.52;;;2.90;99.90;;;1.36;92.61;101663.88;6281007;22;20049;-82
2023/10/17 02:50:45;;;;;;;1.77;0.90;;;2.80;99.90;;;1.30;92.17;101675.94;6258070;22;20442;-82
2023/10/17 02:53:13;;;;;;;1.42;0.63;;;2.80;99.90;;;1.23;92.35;101665.53;6282034;22;20004;-82
2023/10/17 02:55:39;;;;;;;1.05;0.55;;;2.80;99.90;;;1.22;91.83;101671.56;6307391;22;20031;-81
2023/10/17 02:58:05;;;;;;;0.82;0.50;;;2.70;99.90;;;1.19;91.95;101673.28;6254712;22;20390;-81
2023/10/17 03:00:47;;;;;;;0.82;0.60;;;2.70;99.90;;;1.17;92.10;101681.03;6280796;22;20322;-82
2023/10/17 03:03:20;;;;;;;1.77;0.73;;;2.70;99.90;;;1.16;92.09;101681.88;6283336;22;20014;-81
2023/10/17 03:05:50;;;;;;;1.88;1.05;;;2.70;99.90;;;1.19;92.27;101678.47;6280541;22;20090;-82
2023/10/17 03:08:22;;;;;;;4.05;1.15;;;2.70;99.90;;;1.23;92.70;101681.09;6279797;22;20010;-81
2023/10/17 03:10:53;;;;;;;3.42;1.00;;;2.80;99.90;;;1.26;93.28;101672.44;6280941;22;20435;-82
2023/10/17 03:13:39;;;;;;;2.38;1.20;;;2.80;99.90;;;1.32;93.23;101669.91;6280694;22;20049;-82
2023/10/17 03:16:17;;;;;;;2.42;1.20;;;2.80;99.90;;;1.36;93.69;101678.56;6258931;22;20003;-81
2023/10/17 03:18:50;;;;;;;3.08;1.20;;;2.90;99.90;;;1.39;94.28;101666.47;6281862;22;20007;-82
2023/10/17 03:21:18;;;;;;;7.07;1.23;;;2.90;99.90;;;1.44;94.28;101662.19;6280965;22;20010;-80
2023/10/17 03:24:00;;;;;;;2.60;1.25;;;3.00;99.90;;;1.51;94.63;101675.19;6254950;22;20034;-82
2023/10/17 03:26:39;;;;;;;2.28;1.25;;;3.00;99.90;;;1.52;95.14;101676.94;6281311;22;20003;-82
2023/10/17 03:29:14;;;;;;;4.28;1.67;;;3.00;99.90;;;1.56;95.67;101676.09;6255126;22;20395;-81
2023/10/17 03:31:42;;;;;;;6.67;1.43;;;3.00;99.90;;;1.59;96.49;101673.53;6254604;22;20030;-82
2023/10/17 03:34:13;;;;;;;5.70;2.15;;;3.10;99.90;;;1.62;95.91;101676.13;6254331;22;20102;-82
2023/10/17 03:39:20;;;;;;;9.32;1.50;;;3.10;99.90;;;1.70;96.35;101679.63;6279714;22;20015;-80
2023/10/17 03:41:46;;;;;;;2.03;1.00;;;3.20;99.90;;;1.73;96.47;101681.38;6283709;22;20010;-80
2023/10/17 03:44:15;;;;;;;4.00;1.02;;;3.20;99.90;;;1.76;96.93;101682.25;6279770;22;20443;-82
2023/10/17 03:46:49;;;;;;;0.82;0.80;;;3.30;99.90;;;1.81;96.84;101682.28;6280523;22;20205;-82
2023/10/17 03:49:18;;;;;;;3.80;1.52;;;3.30;99.90;;;1.83;97.08;101684.03;6280125;22;20348;-80
2023/10/17 03:51:54;;;;;;;1.40;0.90;;;3.30;99.90;;;1.85;96.95;101681.44;6254445;22;20000;-82
2023/10/17 03:54:22;;;;;;;1.48;0.95;;;3.30;99.90;;;1.87;96.88;101679.72;6282487;22;20365;-82
2023/10/17 03:56:56;;;;;;;4.10;1.00;;;3.30;99.90;;;1.91;97.07;101683.22;6289028;22;20006;-82
2023/10/17 04:02:21;;;;;;;0.52;0.50;;;3.40;99.90;;;1.87;96.81;101677.13;6276644;22;20562;-82
2023/10/17 04:04:57;;;;;;;2.15;1.10;;;3.30;99.90;;;1.87;96.66;101679.72;6257594;22;20045;-82
2023/10/17 04:07:29;;;;;;;1.75;0.85;;;3.30;99.90;;;1.86;96.54;101678.00;6284226;22;20033;-82
2023/10/17 04:13:10;;;;;;;4.20;1.08;;;3.30;99.90;;;1.86;96.72;101675.41;6286364;22;20320;-82
2023/10/17 04:15:35;;;;;;;2.00;1.02;;;3.30;99.90;;;1.88;96.65;101675.38;6287924;22;20355;-82
2023/10/17 04:18:01;;;;;;;3.55;0.88;;;3.40;99.90;;;1.90;97.12;101684.06;6308724;22;19999;-82
2023/10/17 04:20:30;;;;;;;3.40;1.30;;;3.40;99.90;;;1.93;96.75;101678.88;6281616;22;20025;-82
2023/10/17 04:23:01;;;;;;;6.40;1.13;;;3.40;99.90;;;1.93;96.67;101678.88;6281433;22;20027;-81
2023/10/17 04:25:38;;;;;;;2.42;1.33;;;3.40;99.90;;;1.96;96.83;101673.69;6281736;22;20014;-79
2023/10/17 04:28:07;;;;;;;1.55;1.20;;;3.50;99.90;;;1.99;97.02;101669.38;6282583;22;20000;-81
2023/10/17 04:30:35;;;;;;;2.22;1.45;;;3.50;99.90;;;2.02;96.87;101673.72;6279908;22;19999;-80
2023/10/17 04:33:12;;;;;;;4.95;1.98;;;3.50;99.90;;;2.06;97.48;101672.88;6279997;22;20373;-82
2023/10/17 04:35:50;;;;;;;9.45;3.10;;;3.50;99.90;;;2.10;97.34;101682.41;6256325;22;20467;-81
2023/10/17 04:46:25;;;;;;;11.40;2.67;;;3.60;99.90;;;2.22;98.52;101673.78;6280725;22;20015;-82
2023/10/17 04:48:57;;;;;;;12.20;2.60;;;3.60;99.90;;;2.22;99.00;101682.44;6305378;22;20003;-82
2023/10/17 04:51:31;;;;;;;5.90;2.58;;;3.70;99.90;;;2.21;99.33;101685.06;6254875;22;20003;-81
2023/10/17 04:54:05;;;;;;;8.23;2.40;;;3.60;99.90;;;2.19;98.90;101679.84;6304891;22;20003;-80
2023/10/17 04:56:52;;;;;;;10.25;2.47;;;3.60;99.90;;;2.16;99.25;101678.97;6255235;22;20045;-82
2023/10/17 04:59:28;;;;;;;6.75;2.55;;;3.60;99.90;;;2.14;99.01;101684.16;6283744;22;20041;-80
2023/10/17 05:02:18;;;;;;;8.15;2.15;;;3.60;99.90;;;2.12;98.87;101682.44;6256126;22;20003;-81
2023/10/17 06:17:27;;;;;;;13.43;3.65;;;3.60;99.90;;;2.09;100.00;101724.84;6179899;23;20027;-81
2023/10/17 06:19:54;;;;;;;6.38;3.42;;;3.60;99.90;;;2.13;100.00;101733.53;6181348;23;20016;-80
2023/10/17 06:26:02;;;;;;;9.25;3.20;;;3.60;99.90;;;2.18;100.00;101729.19;6181258;23;20021;-80
2023/10/17 06:30:34;;;;;;;13.57;3.83;;;3.70;99.90;;;2.29;100.00;101729.25;6181673;23;20041;-79
2023/10/17 06:33:17;;;;;;;12.27;4.03;;;3.70;99.90;;;2.35;100.00;101724.06;6180259;23;20005;-80
2023/10/17 06:35:55;;;;;;;17.42;3.60;;;3.80;99.90;;;2.44;100.00;101724.09;6179923;23;20012;-82
2023/10/17 06:38:27;;;;;;;9.35;3.70;;;3.90;99.90;;;2.52;100.00;101727.59;6181134;23;20036;-81
2023/10/17 06:41:14;;;;;;;17.58;4.00;;;4.00;99.90;;;2.63;100.00;101727.63;6180375;23;20001;-81
2023/10/17 06:43:46;;;;;;;7.38;3.35;;;4.00;99.90;;;2.73;100.00;101736.31;6188596;23;20009;-81
2023/10/17 06:46:14;;;;;;;9.40;4.70;;;4.20;99.90;;;2.81;100.00;101734.59;6187317;23;20028;-81
2023/10/17 06:48:51;;;;;;;19.58;4.65;;;4.20;99.90;;;2.91;100.00;101735.47;6243860;22;20065;-81
2023/10/17 06:53:51;;;;;;;13.93;3.55;;;4.40;99.90;;;3.11;100.00;101738.97;6278829;22;20007;-79
2023/10/17 06:56:25;;;;;;;13.05;3.65;;;4.50;99.90;;;3.25;100.00;101746.78;6253232;22;20094;-80
2023/10/17 06:59:03;;;;;;;12.13;3.65;;;4.70;99.90;;;3.36;100.00;101745.03;6277937;22;20023;-81
2023/10/17 07:01:34;;;;;;;11.57;3.10;;;;;;;3.51;100.00;101754.56;6286822;22;20020;-84
2023/10/17 07:04:11;;;;;;;5.78;3.22;;;;;;;3.67;100.00;101755.41;6277323;22;20008;-84
2023/10/17 07:06:45;;;;;;;6.40;3.15;;;5.10;99.90;;;3.77;100.00;101738.91;6276547;22;20637;-84
2023/10/17 07:09:18;;;;;;;7.53;3.33;;;5.20;99.90;;;3.95;100.00;101755.34;6306348;22;20340;-84
2023/10/17 07:12:03;;;;;;;;;;;;;;;;;;;;;
2023/10/17 07:14:32;;;;;;;14.40;3.83;;;5.50;99.90;;;4.32;100.00;101762.19;6306452;22;20090;-84
2023/10/17 07:16:58;;;;;;;13.65;3.50;;;5.70;99.90;;;4.57;100.00;101759.44;6304806;22;20574;-82
2023/10/17 07:22:16;;;;;;;60.20;21.88;;;6.20;99.90;;;4.92;100.00;101764.47;6306105;22;20046;-84
2023/10/17 07:24:48;;;;;;;12.52;4.28;;;;;;;5.07;100.00;101768.69;6184494;23;20139;-84
2023/10/17 07:28:24;;;;;;;15.95;5.57;;;6.50;99.90;;;5.24;100.00;101763.34;6209021;23;20488;-84
2023/10/17 07:31:05;;;;;;;11.65;3.25;;;;;;;5.41;100.00;101768.44;6175189;23;20020;-83
2023/10/17 07:33:34;;;;;;;10.80;3.00;;;;;;;5.57;100.00;101763.09;6185642;23;20012;-83
2023/10/17 07:39:38;;;;;;;12.35;3.13;;;7.20;99.90;;;5.93;100.00;101757.50;6118889;23;20016;-84
2023/10/17 07:42:13;;;;;;;11.45;2.85;;;;;;;6.09;100.00;101757.34;6100437;23;20006;-83
2023/10/17 07:47:35;;;;;;;11.05;2.53;;;;;;;6.46;100.00;101754.31;6091913;23;20161;-85
2023/10/17 07:50:02;;;;;;;9.38;2.05;;;;;;;6.63;100.00;101761.91;6068580;23;20014;-85
2023/10/17 07:52:44;;;;;;;7.13;2.08;;;;;;;6.78;100.00;101761.69;6092058;23;20561;-84
2023/10/17 07:55:34;;;;;;;11.10;1.95;;;8.20;99.90;;;6.90;100.00;101753.66;6092300;23;20007;-84
2023/10/17 07:58:06;;;;;;;6.43;1.90;;;;;;;7.04;100.00;101763.94;6091039;23;20021;-85
2023/10/17 08:00:55;;;;;;;4.82;2.03;;;8.40;99.90;;;7.14;100.00;101765.50;6067720;23;20018;-84
2023/10/17 08:03:27;;;;;;;9.88;1.92;;;8.50;99.90;;;7.24;100.00;101765.38;6118895;23;20065;-85
2023/10/17 08:06:05;;;;;;;11.27;2.03;;;;;;;7.32;100.00;101761.75;6073360;23;20013;-84
2023/10/17 08:08:43;;;;;;;5.53;1.77;;;8.70;99.90;;;7.41;100.00;101768.59;6120033;23;20017;-85
2023/10/17 08:11:36;;;;;;;9.73;2.55;;;8.80;99.90;;;7.52;100.00;101771.88;6120846;23;20036;-84
2023/10/17 08:14:09;;;;;;;11.70;3.25;;;;;;;7.60;100.00;101774.34;6006140;23;20042;-83
2023/10/17 08:16:49;;;;;;;11.13;3.40;;;8.90;99.90;;;7.68;100.00;101771.63;6041563;23;20011;-85
2023/10/17 08:19:29;;;;;;;12.57;2.85;;;;;;;7.77;100.00;101774.06;6062023;23;20478;-85
2023/10/17 08:24:51;;;;;;;7.28;2.30;;;9.20;99.90;;;7.97;100.00;101781.59;6085674;23;20021;-85
2023/10/17 08:30:06;;;;;;;5.50;1.92;;;9.30;99.90;;;8.10;100.00;101776.94;6099672;23;20366;-86
2023/10/17 08:32:55;;;;;;;6.15;1.50;;;;;;;8.19;100.00;101780.25;6010108;23;20444;-84
2023/10/17 08:35:28;;;;;;;8.20;1.55;;;9.50;99.90;;;8.28;100.00;101779.22;6033572;23;20015;-83
2023/10/17 08:38:03;;;;;;;9.50;1.80;;;9.60;99.90;;;8.39;100.00;101785.09;6031422;23;20448;-84
2023/10/17 08:40:39;;;;;;;;;;;;;;;;;;;;;
2023/10/17 08:43:19;;;;;;;4.15;1.50;;;;;;;8.54;100.00;101783.09;6090321;23;20379;-84
2023/10/17 08:45:59;;;;;;;12.77;2.25;;;9.80;99.90;;;8.62;99.80;101775.94;6114190;23;20463;-84
2023/10/17 08:48:26;;;;;;;9.57;1.80;;;9.90;99.90;;;8.69;99.02;101776.66;6114746;23;20529;-84
2023/10/17 08:51:07;;;;;;;16.25;1.90;;;;;;;8.78;98.50;101776.44;6153902;22;20005;-84
2023/10/17 08:53:34;;;;;;;9.65;1.88;;;10.10;99.90;;;8.90;98.56;101786.69;6214343;23;20012;-83
2023/10/17 08:56:14;;;;;;;14.43;1.80;;;10.20;99.90;;;9.01;98.98;101789.06;6189796;23;20042;-84
2023/10/17 08:58:47;;;;;;;11.75;1.73;;;10.30;99.90;;;9.15;98.55;101791.34;6215798;23;20004;-84
2023/10/17 09:01:36;;;;;;;8.02;1.67;;;10.40;99.90;;;9.23;98.35;101795.53;6189909;23;20050;-83
2023/10/17 09:04:10;;;;;;;8.18;2.00;;;;;;;9.33;98.41;101805.81;6257883;22;20007;-84
2023/10/17 09:06:49;;;;;;;5.85;2.15;;;;;;;9.33;97.80;101797.94;6299577;22;20018;-84
2023/10/17 09:09:28;;;;;;;8.63;2.15;;;10.60;99.90;;;9.35;96.73;101782.97;6305318;22;20018;-85
2023/10/17 09:17:31;;;;;;;11.63;2.17;;;;;;;9.59;94.34;101787.66;6283210;22;20007;-84
2023/10/17 09:20:05;;;;;;;12.48;2.70;;;;;;;9.76;93.96;101794.22;6303352;22;20015;-85
2023/10/17 09:25:35;;;;;;;8.07;2.17;;;;;;;10.17;92.59;101792.22;6190162;23;20398;-85
2023/10/17 09:28:01;;;;;;;10.18;2.30;;;11.40;99.90;;;10.26;90.11;101787.59;6207901;23;20013;-84
2023/10/17 09:30:28;;;;;;;5.10;1.60;;;;;;;10.37;89.28;101792.59;6160601;23;20013;-84
2023/10/17 09:33:04;;;;;;;7.57;1.70;;;11.60;99.90;;;10.48;89.06;101788.78;6209190;23;20016;-84
2023/10/17 09:35:39;;;;;;;;;;;11.60;99.90;;;10.50;88.29;101793.09;6210764;23;20009;-84
2023/10/17 09:38:07;;;;;;;14.70;1.85;;;;;;;10.54;87.53;101801.75;6157135;23;20343;-85
2023/10/17 09:40:33;;;;;;;9.05;1.88;;;11.80;99.90;;;10.56;86.79;101799.94;6209325;23;20012;-85
2023/10/17 09:43:00;;;;;;;10.10;1.70;;;11.80;99.90;;;10.57;85.78;101802.53;6159770;23;20219;-84
2023/10/17 09:45:46;;;;;;;5.97;1.30;;;11.70;99.90;;;10.57;85.08;101799.03;6157875;23;20066;-83
2023/10/17 09:51:27;;;;;;;4.05;1.17;;;11.80;99.90;;;10.56;84.12;101799.94;6203387;23;20016;-84
2023/10/17 09:53:56;;;;;;;10.35;1.08;;;11.70;99.90;;;10.58;84.66;101798.13;6185884;23;20543;-84
2023/10/17 09:56:44;;;;;;;7.63;1.65;;;;;;;10.64;84.01;101798.78;6183054;23;20588;-84
2023/10/17 09:59:28;;;;;;;7.70;1.20;;;11.80;99.90;;;10.72;83.53;101800.34;6209728;23;20074;-83
2023/10/17 10:02:05;;;;;;;13.23;1.70;;;;;;;10.76;82.84;101797.59;6308061;22;20022;-83
2023/10/17 10:04:31;;;;;;;10.02;1.40;;;12.00;99.90;;;10.84;83.13;101799.97;6335950;22;20014;-84
2023/10/17 10:07:41;;;;;;;9.63;1.60;;;12.00;99.90;;;10.86;81.27;101796.41;6309146;22;20329;-84
2023/10/17 10:10:09;;;;;;;14.52;1.50;;;12.10;99.90;;;10.86;81.76;101806.94;6274412;22;20073;-83
2023/10/17 10:12:59;;;;;;;8.20;1.33;;;12.10;99.90;;;10.97;82.12;101797.81;6251128;22;20024;-83
2023/10/17 10:16:01;;;;;;;8.55;1.98;;;12.20;99.90;;;11.04;81.41;101796.75;6249881;22;20394;-84
2023/10/17 10:18:51;;;;;;;3.40;1.13;;;12.20;99.90;;;11.10;81.41;101799.19;6251267;22;20011;-84
2023/10/17 10:21:22;;;;;;;7.72;1.27;;;12.30;99.90;;;11.12;80.61;101799.97;6302940;22;20011;-83
2023/10/17 10:23:54;;;;;;;9.13;2.28;;;12.30;99.90;;;11.23;81.46;101803.16;6253062;22;20007;-83
2023/10/17 10:26:22;;;;;;;8.30;1.45;;;12.40;99.90;;;11.26;80.14;101792.50;6253073;22;20021;-83
2023/10/17 10:28:51;;;;;;;6.90;1.20;;;12.40;99.90;;;11.28;76.92;101792.44;6276351;22;20007;-84
2023/10/17 10:31:25;;;;;;;5.47;1.08;;;12.50;99.90;;;11.32;77.68;101796.72;6249837;22;20143;-83
2023/10/17 10:34:06;;;;;;;7.75;1.27;;;12.50;99.90;;;11.41;78.68;101787.63;6274837;22;20010;-84
2023/10/17 10:36:58;;;;;;;5.30;1.00;;;12.60;99.90;;;11.43;76.78;101793.72;6252584;22;20057;-83
2023/10/17 10:39:27;;;;;;;8.50;1.08;;;;;;;11.46;75.16;101793.59;6154066;23;20550;-83
2023/10/17 10:42:06;;;;;;;3.90;0.75;;;12.70;99.90;;;11.53;75.59;101786.34;6296398;22;20022;-84
2023/10/17 10:44:47;;;;;;;6.20;0.60;;;12.70;99.90;;;11.52;72.73;101787.28;6310026;22;20007;-84
2023/10/17 10:47:14;;;;;;;9.02;0.93;;;12.70;99.90;;;11.54;74.14;101788.94;6337097;22;20006;-83
2023/10/17 10:49:49;;;;;;;6.13;1.10;;;12.70;99.90;;;11.60;75.89;101788.75;6311236;22;19999;-83
2023/10/17 10:52:28;;;;;;;5.97;1.13;;;12.70;99.90;;;11.48;74.38;101789.16;6280686;22;20038;-83
2023/10/17 10:54:59;;;;;;;2.88;0.80;;;12.70;99.90;;;11.55;75.13;101780.09;6280711;22;20095;-84
2023/10/17 10:57:34;;;;;;;9.77;1.30;;;12.80;99.90;;;11.67;75.91;101779.69;6280380;22;20347;-84
2023/10/17 11:00:09;;;;;;;4.32;1.00;;;12.80;99.90;;;11.70;75.05;101776.09;6304215;22;20086;-85
2023/10/17 11:02:38;;;;;;;5.07;1.05;;;12.80;99.90;;;11.74;74.52;101782.97;6281885;22;20011;-83
2023/10/17 11:05:52;;;;;;;8.70;1.27;;;12.90;99.90;;;11.64;74.01;101771.91;6307523;22;20003;-83
2023/10/17 11:11:11;;;;;;;4.93;1.38;;;;;;;11.62;74.38;101780.75;6193296;23;20404;-85
2023/10/17 11:13:51;;;;;;;3.22;0.88;;;;;;;11.58;75.47;101776.53;6212903;23;20012;-82
2023/10/17 11:16:29;;;;;;;4.93;0.90;;;12.70;99.90;;;11.56;74.99;101776.56;6212079;23;20067;-84
2023/10/17 11:18:55;;;;;;;4.38;0.82;;;12.70;99.90;;;11.43;73.92;101775.25;6213289;23;20013;-83
2023/10/17 11:21:33;;;;;;;5.60;0.90;;;12.70;99.90;;;11.45;73.14;101761.09;6213453;23;20108;-83
2023/10/17 11:24:10;;;;;;;3.28;0.60;;;12.60;99.90;;;11.49;71.16;101764.50;6213143;23;20088;-84
2023/10/17 11:26:42;;;;;;;3.88;0.60;;;12.60;99.90;;;11.53;70.76;101766.09;6212690;23;20012;-83
2023/10/17 11:29:35;;;;;;;3.95;0.47;;;12.60;99.90;;;11.56;69.08;101766.00;6213650;23;20015;-84
2023/10/17 11:32:01;;;;;;;3.17;0.52;;;12.70;99.90;;;11.60;68.79;101767.63;6149540;23;20142;-84
2023/10/17 11:34:46;;;;;;;5.72;0.70;;;12.70;99.90;;;11.71;68.51;101769.91;6152987;23;20005;-84
2023/10/17 11:37:22;;;;;;;4.32;0.45;;;12.80;99.90;;;11.84;67.98;101780.91;6153275;23;20357;-84
2023/10/17 11:40:28;;;;;;;3.38;0.55;;;13.00;99.90;;;11.93;69.25;101766.56;6128304;23;20354;-84
2023/10/17 11:42:53;;;;;;;2.55;0.60;;;13.10;99.90;;;12.07;69.98;101753.69;6152533;23;20024;-84
2023/10/17 11:45:25;;;;;;;5.57;0.60;;;;;;;12.18;70.64;101755.94;6153738;23;20010;-84
2023/10/17 11:47:55;;;;;;;5.60;0.82;;;13.30;99.90;;;12.14;69.66;101756.97;6191496;22;20003;-83
2023/10/17 11:50:38;;;;;;;6.55;0.70;;;13.30;99.90;;;12.10;69.43;101757.09;6249446;22;20003;-83
2023/10/17 11:53:16;;;;;;;2.15;0.40;;;13.20;99.90;;;12.06;66.70;101765.19;6274619;22;20050;-83
2023/10/17 11:55:46;;;;;;;4.40;0.40;;;13.20;99.90;;;12.00;66.81;101760.13;6272920;22;20129;-83
2023/10/17 11:58:25;;;;;;;6.15;0.70;;;13.10;99.90;;;11.98;68.18;101761.97;6248999;22;20014;-83
2023/10/17 12:00:51;;;;;;;3.08;0.63;;;13.00;99.90;;;11.67;68.51;101755.94;6248375;22;20531;-83
2023/10/17 12:03:29;;;;;;;3.83;0.57;;;12.90;99.90;;;11.54;69.45;101744.09;6273113;22;20051;-82
2023/10/17 12:05:55;;;;;;;8.20;0.80;;;12.80;99.90;;;11.54;69.07;101745.88;6275151;22;20027;-83
2023/10/17 12:08:30;;;;;;;3.45;0.47;;;;;;;11.56;68.90;101738.78;6259937;22;20320;-82
2023/10/17 12:10:56;;;;;;;1.73;0.40;;;12.80;99.90;;;11.62;69.85;101731.53;6306828;22;20472;-83
2023/10/17 12:13:21;;;;;;;5.90;0.52;;;12.80;99.90;;;11.69;69.21;101732.16;6280142;22;20004;-83
2023/10/17 12:15:47;;;;;;;5.40;0.73;;;12.90;99.90;;;11.73;69.31;101735.53;6281007;22;20038;-83
2023/10/17 12:18:19;;;;;;;3.67;0.68;;;;;;;11.85;70.05;101738.59;6307072;22;20339;-83
2023/10/17 12:20:49;;;;;;;3.75;0.60;;;13.00;99.90;;;11.92;69.85;101728.72;6307001;22;20015;-83
2023/10/17 12:23:45;;;;;;;5.53;0.60;;;13.00;99.90;;;11.94;69.73;101734.81;6311925;22;20010;-88
2023/10/17 12:26:55;;;;;;;2.00;0.40;;;13.00;99.90;;;11.85;69.29;101737.75;6295560;22;20003;-88
2023/10/17 12:33:36;;;;;;;3.05;0.30;;;13.00;99.90;;;11.71;69.10;101730.34;6281817;22;20040;-88
2023/10/17 12:36:47;;;;;;;3.20;0.65;;;;;;;11.80;70.72;101731.78;6203901;23;20020;-87
2023/10/17 12:39:30;;;;;;;4.88;0.80;;;12.90;99.90;;;11.77;70.59;101731.88;6193489;23;20028;-88
2023/10/17 12:42:29;;;;;;;5.18;0.80;;;12.90;99.90;;;11.78;70.14;101728.34;6287009;22;20029;-88
2023/10/17 12:45:36;;;;;;;4.30;0.47;;;12.90;99.90;;;11.79;70.44;101735.31;6317164;22;20014;-88
2023/10/17 12:48:35;;;;;;;3.75;0.63;;;12.90;99.90;;;11.76;70.20;101728.38;6180741;23;20020;-87
2023/10/17 13:02:43;;;;;;;1.85;0.50;;;12.70;99.90;;;11.59;72.17;101718.41;6209015;22;20373;-87
2023/10/17 13:08:45;;;;;;;3.40;0.70;;;;;;;11.51;71.57;101696.72;6219116;23;20073;-88
2023/10/17 13:11:46;;;;;;;3.00;0.60;;;12.60;99.90;;;11.47;72.05;101700.41;6232670;23;20008;-88
2023/10/17 13:21:45;;;;;;;4.57;0.85;;;12.50;99.90;;;11.29;71.83;101705.41;6024466;23;20463;-88
2023/10/17 13:27:46;;;;;;;4.63;0.70;;;;;;;11.20;73.65;101695.16;5832983;24;20594;-90
2023/10/17 13:31:44;;;;;;;5.77;0.50;;;12.30;99.90;;;11.16;72.86;101687.41;5829465;24;21354;-88
2023/10/17 13:47:55;;;;;;;5.32;1.02;;;;;;;11.45;74.63;101694.31;5623677;22;15083610;-87
2023/10/17 13:50:25;;;;;;;4.15;0.63;;;12.60;99.90;;;11.54;74.99;101701.91;6309181;22;20019;-89
2023/10/17 13:53:36;;;;;;;3.05;0.63;;;12.60;99.90;;;11.64;75.48;101695.41;6303345;22;20019;-87
2023/10/17 13:56:34;;;;;;;4.28;0.77;;;;;;;11.67;75.59;101689.16;6304177;22;20074;-88
2023/10/17 14:05:36;;;;;;;5.95;0.68;;;12.90;99.90;;;11.76;75.41;101683.53;6290877;22;20034;-87